Time;durP1;ratioP1;P1;durP2;ratioP2;P2;SDS_P1;SDS_P2;PMS_P1;PMS_P2;Temp;Humidity;BMP_temperature;BMP_pressure;BME280_temperature;BME280_humidity;BME280_pressure;Samples;Min_cycle;Max_cycle;Signal;HPM_P1;HPM_P2
2022/11/06 00:00:04;;;;;;;;;;;;;;;8.68;69.14;100816.91;5053330;28;19951;-68
2022/11/06 00:02:29;;;;;;;;;;;;;;;8.71;69.24;100819.53;5054553;28;19917;-67
2022/11/06 00:06:46;;;;;;;;;;;;;;;8.67;68.90;100815.19;5054876;28;19921;-67
2022/11/06 00:07:39;;;;;;;;;;;;;;;8.69;68.83;100818.66;5053977;28;20399;-67
2022/11/06 00:10:05;;;;;;;;;;;;;;;8.64;69.49;100823.91;5054424;28;19921;-67
2022/11/06 00:12:30;;;;;;;;;;;;;;;8.47;69.58;100826.66;5054289;28;19924;-66
2022/11/06 00:14:55;;;;;;;;;;;;;;;8.59;69.22;100834.44;5054321;28;19924;-67
2022/11/06 00:17:21;;;;;;;;;;;;;;;8.63;69.01;100833.53;5054705;28;19925;-67
2022/11/06 00:19:46;;;;;;;;;;;;;;;8.62;68.94;100829.19;5054181;28;19975;-67
2022/11/06 00:22:11;;;;;;;;;;;;;;;8.52;69.02;100837.97;5054315;28;20428;-67
2022/11/06 00:24:37;;;;;;;;;;;;;;;8.51;69.06;100833.59;5052934;28;19921;-67
2022/11/06 00:27:02;;;;;;;;;;;;;;;8.46;69.59;100834.50;5053880;28;20011;-66
2022/11/06 00:29:27;;;;;;;;;;;;;;;8.45;69.47;100828.41;5054184;28;19921;-67
2022/11/06 00:31:53;;;;;;;;;;;;;;;8.51;68.75;100828.38;5054172;28;20297;-66
2022/11/06 00:34:18;;;;;;;;;;;;;;;8.48;68.90;100835.38;5054179;28;19971;-66
2022/11/06 00:36:43;;;;;;;;;;;;;;;8.49;68.78;100827.50;5054474;28;20019;-67
2022/11/06 00:39:10;;;;;;;;;;;;;;;8.53;68.66;100838.81;5054100;28;19920;-67
2022/11/06 00:41:35;;;;;;;;;;;;;;;8.47;68.33;100831.88;5053984;28;19955;-66
2022/11/06 00:44:01;;;;;;;;;;;;;;;8.47;68.50;100831.03;5069124;28;19986;-67
2022/11/06 00:46:26;;;;;;;;;;;;;;;8.47;68.39;100829.28;5053999;28;19917;-67
2022/11/06 00:48:52;;;;;;;;;;;;;;;8.45;68.21;100824.91;5069282;28;19932;-67
2022/11/06 00:51:19;;;;;;;;;;;;;;;8.41;67.88;100831.91;5052600;28;19921;-67
2022/11/06 00:53:45;;;;;;;;;;;;;;;8.40;68.08;100822.31;5053835;28;19963;-67
2022/11/06 00:56:12;;;;;;;;;;;;;;;8.33;67.89;100820.56;5053569;28;19921;-67
2022/11/06 00:58:38;;;;;;;;;;;;;;;8.36;68.24;100826.66;5053837;28;19921;-67
2022/11/06 01:01:04;;;;;;;;;;;;;;;8.28;68.12;100825.84;5054095;28;19920;-67
2022/11/06 01:03:30;;;;;;;;;;;;;;;8.28;68.26;100824.97;5053936;28;20406;-67
2022/11/06 01:06:01;;;;;;;;;;;;;;;8.15;69.00;100825.03;5069464;28;20021;-66
2022/11/06 01:08:27;;;;;;;;;;;;;;;8.18;68.91;100829.41;5053822;28;19917;-67
2022/11/06 01:10:52;;;;;;;;;;;;;;;8.13;68.78;100825.91;5086019;28;19943;-67
2022/11/06 01:13:17;;;;;;;;;;;;;;;8.14;68.46;100825.94;5053720;28;20360;-66
2022/11/06 01:15:43;;;;;;;;;;;;;;;8.11;68.18;100822.44;5054134;28;19927;-66
2022/11/06 01:18:08;;;;;;;;;;;;;;;8.15;68.47;100822.41;5056239;28;19925;-67
2022/11/06 01:20:35;;;;;;;;;;;;;;;8.15;68.46;100824.16;5057708;28;19921;-66
2022/11/06 01:23:01;;;;;;;;;;;;;;;8.17;68.23;100824.16;5057666;28;19916;-66
2022/11/06 01:25:26;;;;;;;;;;;;;;;8.15;68.28;100825.03;5059515;28;19921;-66
2022/11/06 01:27:51;;;;;;;;;;;;;;;8.27;67.57;100824.09;5074337;28;19943;-67
2022/11/06 01:30:17;;;;;;;;;;;;;;;8.24;67.89;100828.50;5057669;28;19964;-67
2022/11/06 01:32:42;;;;;;;;;;;;;;;8.17;67.97;100827.63;5058372;28;19921;-67
2022/11/06 01:35:07;;;;;;;;;;;;;;;8.12;68.16;100819.81;5059676;28;20356;-67
2022/11/06 01:37:33;;;;;;;;;;;;;;;8.09;68.23;100827.66;5058412;28;20007;-66
2022/11/06 01:39:58;;;;;;;;;;;;;;;8.11;68.06;100838.16;5057275;28;19921;-66
2022/11/06 01:42:23;;;;;;;;;;;;;;;8.08;68.31;100836.41;5057482;28;20007;-66
2022/11/06 01:45:07;;;;;;;;;;;;;;;8.06;68.03;100835.56;5057737;28;20368;-67
2022/11/06 01:47:32;;;;;;;;;;;;;;;8.04;68.30;100842.53;5057321;28;20364;-67
2022/11/06 01:50:00;;;;;;;;;;;;;;;8.01;67.97;100832.06;5056801;28;19925;-67
2022/11/06 01:52:26;;;;;;;;;;;;;;;8.00;68.70;100830.34;5056988;28;20016;-67
2022/11/06 01:54:54;;;;;;;;;;;;;;;7.95;69.40;100828.63;5056904;28;20383;-66
2022/11/06 01:57:20;;;;;;;;;;;;;;;8.01;68.90;100829.44;5057060;28;20352;-67
2022/11/06 01:59:45;;;;;;;;;;;;;;;8.01;68.93;100820.72;5056920;28;19921;-66
2022/11/06 02:02:12;;;;;;;;;;;;;;;8.04;68.66;100826.81;5056943;28;19920;-66
2022/11/06 02:04:41;;;;;;;;;;;;;;;8.02;68.90;100820.75;5056836;28;19917;-67
2022/11/06 02:07:07;;;;;;;;;;;;;;;8.01;68.42;100821.59;5089411;28;19917;-67
2022/11/06 02:09:33;;;;;;;;;;;;;;;8.00;69.26;100825.09;5056787;28;20019;-67
2022/11/06 02:12:10;;;;;;;;;;;;;;;8.02;68.76;100828.59;5056724;28;19917;-66
2022/11/06 02:14:35;;;;;;;;;;;;;;;8.01;68.67;100832.06;5056694;28;19921;-67
2022/11/06 02:17:03;;;;;;;;;;;;;;;8.01;69.00;100833.81;5056506;28;20288;-67
2022/11/06 02:19:31;;;;;;;;;;;;;;;7.96;68.89;100828.59;5056535;28;19917;-67
2022/11/06 02:22:15;;;;;;;;;;;;;;;7.96;69.04;100836.47;5056831;28;20281;-66
2022/11/06 02:24:47;;;;;;;;;;;;;;;7.90;69.06;100832.13;5071920;28;19916;-66
2022/11/06 02:27:14;;;;;;;;;;;;;;;7.96;68.78;100835.59;5056499;28;19967;-66
2022/11/06 02:30:03;;;;;;;;;;;;;;;7.95;69.28;100842.56;5055721;28;19962;-66
2022/11/06 02:32:34;;;;;;;;;;;;;;;7.78;69.38;100836.50;5050491;28;20015;-67
2022/11/06 02:35:02;;;;;;;;;;;;;;;7.81;69.77;100841.72;5056201;28;19959;-67
2022/11/06 02:37:30;;;;;;;;;;;;;;;7.82;69.59;100835.63;5056483;28;19939;-67
2022/11/06 02:39:57;;;;;;;;;;;;;;;7.83;69.23;100832.16;5056219;28;20092;-66
2022/11/06 02:42:24;;;;;;;;;;;;;;;7.85;69.19;100830.38;5055977;28;19980;-66
2022/11/06 02:44:52;;;;;;;;;;;;;;;7.81;69.13;100828.66;5055826;28;20027;-66
2022/11/06 02:47:18;;;;;;;;;;;;;;;7.90;68.57;100828.66;5056250;28;19947;-66
2022/11/06 02:49:46;;;;;;;;;;;;;;;7.81;69.54;100823.41;5071169;28;19925;-66
2022/11/06 02:52:15;;;;;;;;;;;;;;;7.84;69.26;100826.03;5071340;28;19917;-66
2022/11/06 02:54:43;;;;;;;;;;;;;;;7.88;68.71;100830.38;5055829;28;19917;-67
2022/11/06 02:57:13;;;;;;;;;;;;;;;7.88;68.58;100819.91;5055745;28;20374;-66
2022/11/06 02:59:47;;;;;;;;;;;;;;;7.84;69.15;100823.41;5056534;28;19924;-66
2022/11/06 03:02:29;;;;;;;;;;;;;;;7.96;68.42;100828.59;5055800;28;19924;-66
2022/11/06 03:04:59;;;;;;;;;;;;;;;7.86;68.94;100826.91;5054509;28;20277;-66
2022/11/06 03:07:35;;;;;;;;;;;;;;;7.88;68.91;100820.78;5056036;28;19920;-65
2022/11/06 03:10:01;;;;;;;;;;;;;;;7.94;68.61;100813.78;5056174;28;19928;-66
2022/11/06 03:12:42;;;;;;;;;;;;;;;7.90;68.47;100824.28;5055791;28;20023;-65
2022/11/06 03:15:19;;;;;;;;;;;;;;;7.87;68.57;100824.28;5055687;28;19917;-67
2022/11/06 03:18:07;;;;;;;;;;;;;;;7.88;68.37;100820.78;5070918;28;20361;-65
2022/11/06 03:20:33;;;;;;;;;;;;;;;7.87;68.01;100820.81;5049611;28;19923;-66
2022/11/06 03:23:10;;;;;;;;;;;;;;;7.84;68.04;100818.19;5055336;28;20019;-66
2022/11/06 03:25:46;;;;;;;;;;;;;;;7.79;68.32;100819.97;5055168;28;19920;-67
2022/11/06 03:28:33;;;;;;;;;;;;;;;7.82;69.26;100818.19;5055493;28;19970;-67
2022/11/06 03:31:01;;;;;;;;;;;;;;;7.79;68.84;100822.56;5055004;28;19999;-66
2022/11/06 03:33:34;;;;;;;;;;;;;;;7.84;68.68;100818.19;5055145;28;19921;-66
2022/11/06 03:36:11;;;;;;;;;;;;;;;7.76;69.58;100820.81;5055376;28;19916;-67
2022/11/06 03:38:38;;;;;;;;;;;;;;;7.85;68.63;100827.75;5071754;28;20361;-66
2022/11/06 03:41:06;;;;;;;;;;;;;;;7.78;68.84;100821.72;5055151;28;19917;-67
2022/11/06 03:43:34;;;;;;;;;;;;;;;7.68;69.16;100837.41;5055210;28;19917;-66
2022/11/06 03:46:02;;;;;;;;;;;;;;;7.65;69.33;100827.81;5070254;28;20433;-67
2022/11/06 03:48:37;;;;;;;;;;;;;;;7.55;69.91;100837.44;5055164;28;19921;-67
2022/11/06 03:51:15;;;;;;;;;;;;;;;7.46;69.77;100839.19;5087039;28;19921;-66
2022/11/06 03:53:45;;;;;;;;;;;;;;;7.53;70.03;100839.19;5054943;28;20372;-67
2022/11/06 03:56:21;;;;;;;;;;;;;;;7.70;69.45;100846.13;5055161;28;20360;-66
2022/11/06 03:58:48;;;;;;;;;;;;;;;7.67;69.75;100844.41;5055145;28;19921;-66
2022/11/06 04:01:15;;;;;;;;;;;;;;;7.61;69.93;100836.56;5070180;28;20436;-67
2022/11/06 04:04:01;;;;;;;;;;;;;;;7.73;69.30;100839.13;5054709;28;19917;-67
2022/11/06 04:06:34;;;;;;;;;;;;;;;7.57;70.17;100840.06;5053311;28;19920;-67
2022/11/06 04:14:31;;;;;;;;;;;;;;;7.41;69.53;100841.81;5054769;28;19986;-67
2022/11/06 04:17:02;;;;;;;;;;;;;;;7.42;69.98;100835.75;5054472;28;19924;-66
2022/11/06 04:19:27;;;;;;;;;;;;;;;7.33;69.77;100833.13;5053362;28;19926;-66
2022/11/06 04:21:56;;;;;;;;;;;;;;;7.34;69.49;100832.25;5069841;28;20303;-67
2022/11/06 04:27:23;;;;;;;;;;;;;;;7.35;69.24;100829.63;5054433;28;20328;-65
2022/11/06 04:29:54;;;;;;;;;;;;;;;7.40;69.29;100827.00;5054643;28;19924;-66
2022/11/06 04:32:25;;;;;;;;;;;;;;;7.40;69.33;100820.03;5054182;28;20354;-67
2022/11/06 04:35:03;;;;;;;;;;;;;;;7.39;68.84;100815.69;5054127;28;20253;-65
2022/11/06 04:37:52;;;;;;;;;;;;;;;7.33;69.83;100812.22;5069645;28;20007;-65
2022/11/06 04:40:46;;;;;;;;;;;;;;;7.36;69.41;100812.22;5048513;28;20433;-66
2022/11/06 04:43:11;;;;;;;;;;;;;;;7.33;69.02;100806.97;5044939;28;19939;-66
2022/11/06 04:45:40;;;;;;;;;;;;;;;7.27;69.57;100809.63;5054347;28;20292;-66
2022/11/06 04:48:06;;;;;;;;;;;;;;;7.29;69.55;100807.84;5054169;28;20360;-66
2022/11/06 04:50:35;;;;;;;;;;;;;;;7.27;69.13;100812.22;5053662;28;20273;-66
2022/11/06 04:53:01;;;;;;;;;;;;;;;7.23;69.05;100808.75;5053706;28;19968;-66
2022/11/06 04:55:28;;;;;;;;;;;;;;;7.24;69.04;100804.38;5053911;28;19916;-65
2022/11/06 04:57:53;;;;;;;;;;;;;;;7.30;69.54;100809.59;5053899;28;19921;-65
2022/11/06 05:00:18;;;;;;;;;;;;;;;7.27;69.46;100809.63;5054010;28;20009;-65
2022/11/06 05:02:44;;;;;;;;;;;;;;;7.29;69.73;100808.72;5053788;28;19921;-67
2022/11/06 05:05:09;;;;;;;;;;;;;;;7.33;69.58;100809.59;5053970;28;19925;-66
2022/11/06 05:07:34;;;;;;;;;;;;;;;7.31;68.92;100808.75;5069356;28;20371;-65
2022/11/06 05:09:59;;;;;;;;;;;;;;;7.18;69.30;100812.22;5053945;28;20020;-65
2022/11/06 05:12:25;;;;;;;;;;;;;;;7.22;68.97;100814.84;5053847;28;19921;-66
2022/11/06 05:14:50;;;;;;;;;;;;;;;7.16;69.72;100817.47;5053498;28;19929;-65
2022/11/06 05:17:15;;;;;;;;;;;;;;;7.18;69.44;100815.69;5053982;28;20007;-66
2022/11/06 05:19:41;;;;;;;;;;;;;;;7.26;69.41;100823.53;5053758;28;19921;-66
2022/11/06 05:24:50;;;;;;;;;;;;;;;7.51;68.67;100825.25;5054071;28;20335;-66
2022/11/06 05:27:15;;;;;;;;;;;;;;;7.55;69.71;100829.59;5053431;28;19925;-66
2022/11/06 05:29:40;;;;;;;;;;;;;;;7.48;69.23;100825.25;5054019;28;19917;-67
2022/11/06 05:32:06;;;;;;;;;;;;;;;7.68;68.35;100830.44;5054969;28;20015;-66
2022/11/06 05:34:31;;;;;;;;;;;;;;;7.69;68.17;100829.56;5054753;28;19921;-66
2022/11/06 05:36:56;;;;;;;;;;;;;;;7.65;68.14;100822.59;5053638;28;19921;-66
2022/11/06 05:39:22;;;;;;;;;;;;;;;7.74;68.46;100840.00;5053693;28;19923;-66
2022/11/06 05:41:47;;;;;;;;;;;;;;;7.86;68.22;100837.38;5054327;28;19920;-65
2022/11/06 05:44:12;;;;;;;;;;;;;;;7.99;67.70;100840.81;5053581;28;19920;-66
2022/11/06 05:46:37;;;;;;;;;;;;;;;7.83;67.04;100842.63;5053889;28;19928;-66
2022/11/06 05:49:03;;;;;;;;;;;;;;;7.97;67.47;100846.03;5053326;28;20081;-66
2022/11/06 05:51:28;;;;;;;;;;;;;;;8.09;67.43;100851.22;5069484;28;19921;-66
2022/11/06 05:53:54;;;;;;;;;;;;;;;8.10;67.12;100854.75;5053482;28;19921;-66
2022/11/06 05:56:19;;;;;;;;;;;;;;;8.28;66.88;100851.16;5053147;28;19928;-66
2022/11/06 05:58:44;;;;;;;;;;;;;;;8.21;66.47;100852.91;5053859;28;19967;-66
2022/11/06 06:01:10;;;;;;;;;;;;;;;8.27;66.35;100857.28;5052258;28;19921;-67
2022/11/06 06:03:35;;;;;;;;;;;;;;;8.35;66.48;100852.88;5053444;28;19925;-66
2022/11/06 06:06:00;;;;;;;;;;;;;;;8.43;65.87;100853.75;5072340;28;19921;-67
2022/11/06 06:08:25;;;;;;;;;;;;;;;8.48;65.81;100857.19;5089370;28;19971;-67
2022/11/06 06:10:51;;;;;;;;;;;;;;;8.49;65.04;100861.53;5057211;28;20379;-67
2022/11/06 06:13:16;;;;;;;;;;;;;;;8.41;64.83;100863.34;5057178;28;19927;-66
2022/11/06 06:15:41;;;;;;;;;;;;;;;8.37;65.17;100856.38;5056770;28;19982;-67
2022/11/06 06:18:07;;;;;;;;;;;;;;;8.14;65.64;100862.56;5056617;28;19974;-67
2022/11/06 06:20:33;;;;;;;;;;;;;;;8.17;65.47;100860.81;5055458;28;19917;-68
2022/11/06 06:22:58;;;;;;;;;;;;;;;8.26;65.62;100864.28;5056723;28;19924;-67
2022/11/06 06:25:24;;;;;;;;;;;;;;;8.10;65.52;100865.22;5056589;28;19917;-66
2022/11/06 06:27:50;;;;;;;;;;;;;;;8.17;65.54;100860.81;5056609;28;20249;-67
2022/11/06 06:30:15;;;;;;;;;;;;;;;8.34;65.21;100869.47;5056703;28;19921;-66
2022/11/06 06:32:41;;;;;;;;;;;;;;;8.25;64.91;100867.72;5056552;28;19967;-67
2022/11/06 06:35:09;;;;;;;;;;;;;;;8.06;65.39;100866.97;5056538;28;19925;-68
2022/11/06 06:37:35;;;;;;;;;;;;;;;8.24;65.25;100870.38;5056439;28;19920;-67
2022/11/06 06:40:00;;;;;;;;;;;;;;;8.42;65.65;100879.91;5056298;28;19921;-67
2022/11/06 06:42:28;;;;;;;;;;;;;;;8.53;64.65;100868.50;5056804;28;19964;-67
2022/11/06 06:44:53;;;;;;;;;;;;;;;8.60;64.31;100864.97;5056608;28;19956;-67
2022/11/06 06:47:19;;;;;;;;;;;;;;;8.72;64.29;100871.03;5056606;28;19963;-68
2022/11/06 06:49:44;;;;;;;;;;;;;;;8.82;64.25;100865.72;5071567;28;19968;-67
2022/11/06 06:52:10;;;;;;;;;;;;;;;8.72;64.06;100873.66;5056187;28;20019;-67
2022/11/06 06:54:35;;;;;;;;;;;;;;;8.74;64.16;100861.44;5056045;28;19925;-67
2022/11/06 06:57:00;;;;;;;;;;;;;;;8.78;64.37;100865.75;5056443;28;19928;-67
2022/11/06 06:59:29;;;;;;;;;;;;;;;8.75;64.29;100873.63;5056065;28;19931;-66
2022/11/06 07:01:55;;;;;;;;;;;;;;;8.76;64.53;100871.00;5056187;28;19921;-67
2022/11/06 07:04:20;;;;;;;;;;;;;;;8.79;64.96;100872.72;5055836;28;19928;-67
2022/11/06 07:06:45;;;;;;;;;;;;;;;8.69;64.50;100868.41;5055930;28;20031;-66
2022/11/06 07:09:11;;;;;;;;;;;;;;;8.59;64.55;100881.59;5055753;28;19921;-67
2022/11/06 07:11:36;;;;;;;;;;;;;;;8.60;65.31;100875.47;5055845;28;20379;-66
2022/11/06 07:14:01;;;;;;;;;;;;;;;8.58;64.94;100874.59;5056292;28;19965;-66
2022/11/06 07:16:28;;;;;;;;;;;;;;;8.56;65.25;100873.72;5055437;28;19944;-68
2022/11/06 07:18:54;;;;;;;;;;;;;;;8.60;65.73;100874.59;5055763;28;19924;-67
2022/11/06 07:21:19;;;;;;;;;;;;;;;8.61;65.42;100866.72;5054423;28;19916;-67
2022/11/06 07:23:45;;;;;;;;;;;;;;;8.67;66.60;100876.31;5055505;28;20233;-67
2022/11/06 07:26:10;;;;;;;;;;;;;;;8.62;66.28;100878.94;5055513;28;20011;-67
2022/11/06 07:28:35;;;;;;;;;;;;;;;8.63;65.04;100879.81;5055704;28;19925;-68
2022/11/06 07:31:02;;;;;;;;;;;;;;;8.66;65.84;100871.94;5055756;28;19948;-66
2022/11/06 07:33:28;;;;;;;;;;;;;;;8.69;65.35;100879.75;5056792;28;19970;-67
2022/11/06 07:35:53;;;;;;;;;;;;;;;8.73;64.93;100871.00;5055365;28;19921;-67
2022/11/06 07:38:19;;;;;;;;;;;;;;;8.87;65.29;100873.56;5054903;28;20004;-68
2022/11/06 07:40:44;;;;;;;;;;;;;;;9.01;64.79;100876.06;5054275;28;19928;-66
2022/11/06 07:43:10;;;;;;;;;;;;;;;9.13;64.59;100881.22;5055783;28;19947;-68
2022/11/06 07:45:36;;;;;;;;;;;;;;;9.23;64.61;100877.66;5055609;28;19956;-67
2022/11/06 07:48:01;;;;;;;;;;;;;;;9.20;64.47;100887.28;5070453;28;20002;-68
2022/11/06 07:50:27;;;;;;;;;;;;;;;9.32;64.43;100877.56;5055328;28;19928;-67
2022/11/06 07:52:52;;;;;;;;;;;;;;;9.42;64.60;100878.38;5053641;28;19921;-67
2022/11/06 07:55:18;;;;;;;;;;;;;;;9.54;64.24;100878.25;5054640;28;19921;-66
2022/11/06 07:57:43;;;;;;;;;;;;;;;9.60;64.35;100878.19;5054873;28;19921;-68
2022/11/06 08:00:09;;;;;;;;;;;;;;;9.66;64.20;100879.88;5055178;28;20343;-68
2022/11/06 08:02:34;;;;;;;;;;;;;;;9.78;64.16;100879.75;5055073;28;19916;-68
2022/11/06 08:04:59;;;;;;;;;;;;;;;9.85;64.31;100873.56;5054667;28;19917;-68
2022/11/06 08:07:24;;;;;;;;;;;;;;;9.96;64.24;100880.44;5055077;28;19967;-67
2022/11/06 08:09:50;;;;;;;;;;;;;;;10.10;64.02;100873.28;5054473;28;19966;-68
2022/11/06 08:12:15;;;;;;;;;;;;;;;10.10;64.09;100878.53;5054721;28;19921;-67
2022/11/06 08:14:40;;;;;;;;;;;;;;;10.25;64.01;100883.66;5054674;28;19928;-68
2022/11/06 08:17:06;;;;;;;;;;;;;;;10.22;64.44;100882.78;5054399;28;20287;-66
2022/11/06 08:19:31;;;;;;;;;;;;;;;10.29;64.26;100880.09;5054487;28;19971;-67
2022/11/06 08:21:57;;;;;;;;;;;;;;;10.52;63.42;100874.50;5054412;28;19924;-67
2022/11/06 08:24:22;;;;;;;;;;;;;;;10.60;62.73;100872.66;5054392;28;19944;-68
2022/11/06 08:26:47;;;;;;;;;;;;;;;10.62;64.25;100870.03;5053710;28;19920;-67
2022/11/06 08:29:13;;;;;;;;;;;;;;;10.75;63.18;100873.34;5054283;28;19999;-67
2022/11/06 08:31:38;;;;;;;;;;;;;;;10.72;63.00;100876.88;5054331;28;20284;-67
2022/11/06 08:34:04;;;;;;;;;;;;;;;10.86;63.65;100874.06;5054343;28;20030;-67
2022/11/06 08:36:29;;;;;;;;;;;;;;;11.02;62.78;100883.44;5054165;28;19967;-67
2022/11/06 08:38:54;;;;;;;;;;;;;;;11.04;63.12;100876.38;5053927;28;19921;-67
2022/11/06 08:41:20;;;;;;;;;;;;;;;11.18;63.06;100880.56;5053983;28;20376;-67
2022/11/06 08:43:49;;;;;;;;;;;;;;;11.27;62.83;100877.78;5053886;28;19928;-66
2022/11/06 08:46:15;;;;;;;;;;;;;;;11.29;62.59;100881.25;5054336;28;20004;-67
2022/11/06 08:48:40;;;;;;;;;;;;;;;11.54;64.19;100873.81;5053982;28;19968;-67
2022/11/06 08:51:05;;;;;;;;;;;;;;;11.69;64.23;100875.28;5069024;28;19931;-66
2022/11/06 08:53:30;;;;;;;;;;;;;;;12.01;63.91;100874.72;5053656;28;19947;-68
2022/11/06 08:55:56;;;;;;;;;;;;;;;12.14;62.10;100878.84;5054148;28;20391;-68
2022/11/06 08:58:21;;;;;;;;;;;;;;;12.28;60.24;100883.81;5054545;28;19928;-68
2022/11/06 09:00:47;;;;;;;;;;;;;;;12.20;61.07;100876.06;5053844;28;20391;-68
2022/11/06 09:03:13;;;;;;;;;;;;;;;12.20;60.82;100883.13;5053600;28;19921;-68
2022/11/06 09:05:40;;;;;;;;;;;;;;;12.39;61.66;100884.47;5085971;28;19923;-67
2022/11/06 09:08:05;;;;;;;;;;;;;;;12.37;59.99;100891.56;5053283;28;20018;-67
2022/11/06 09:10:31;;;;;;;;;;;;;;;12.44;59.83;100881.72;5054209;28;19967;-67
2022/11/06 09:12:59;;;;;;;;;;;;;;;12.38;60.09;100888.00;5053879;28;19925;-67
2022/11/06 09:15:24;;;;;;;;;;;;;;;12.38;60.19;100884.50;5053366;28;20291;-68
2022/11/06 09:17:50;;;;;;;;;;;;;;;12.34;60.17;100883.72;5053506;28;19928;-68
2022/11/06 09:20:17;;;;;;;;;;;;;;;12.32;60.74;100889.00;5053793;28;19921;-68
2022/11/06 09:22:42;;;;;;;;;;;;;;;12.36;60.37;100881.91;5053840;28;19917;-68
2022/11/06 09:25:08;;;;;;;;;;;;;;;12.39;60.13;100879.19;5053471;28;20334;-68
2022/11/06 09:27:40;;;;;;;;;;;;;;;12.35;59.98;100880.16;5053491;28;20373;-68
2022/11/06 09:30:06;;;;;;;;;;;;;;;12.51;59.60;100889.47;5053389;28;19928;-67
2022/11/06 09:32:31;;;;;;;;;;;;;;;12.47;59.41;100887.81;5086973;28;19924;-69
2022/11/06 09:34:57;;;;;;;;;;;;;;;12.33;59.64;100882.84;5054064;28;19925;-68
2022/11/06 09:37:22;;;;;;;;;;;;;;;12.46;59.15;100878.19;5053652;28;19956;-67
2022/11/06 09:39:48;;;;;;;;;;;;;;;12.57;59.22;100873.53;5056128;28;19959;-67
2022/11/06 09:42:20;;;;;;;;;;;;;;;12.60;60.01;100874.38;5058328;28;20015;-68
2022/11/06 09:44:54;;;;;;;;;;;;;;;12.75;58.92;100876.66;5057709;28;19952;-67
2022/11/06 09:47:23;;;;;;;;;;;;;;;12.90;58.44;100868.41;5057149;28;19940;-66
2022/11/06 09:49:53;;;;;;;;;;;;;;;12.95;57.83;100865.66;5057387;28;20015;-68
2022/11/06 09:52:32;;;;;;;;;;;;;;;12.88;58.87;100862.28;5057551;28;19920;-68
2022/11/06 09:55:00;;;;;;;;;;;;;;;13.05;57.55;100859.25;5056995;28;19921;-69
2022/11/06 09:57:32;;;;;;;;;;;;;;;13.06;57.50;100855.72;5056798;28;19917;-67
2022/11/06 09:59:59;;;;;;;;;;;;;;;13.12;57.11;100852.03;5056813;28;20291;-67
2022/11/06 10:02:30;;;;;;;;;;;;;;;13.11;57.69;100853.81;5057473;28;20364;-67
2022/11/06 10:05:05;;;;;;;;;;;;;;;13.16;57.85;100851.94;5057204;28;19960;-69
2022/11/06 10:07:33;;;;;;;;;;;;;;;13.12;56.64;100852.03;5057005;28;19917;-69
2022/11/06 10:10:00;;;;;;;;;;;;;;;13.22;56.86;100849.16;5056656;28;19924;-68
2022/11/06 10:12:34;;;;;;;;;;;;;;;13.24;56.75;100843.84;5055277;28;20327;-68
2022/11/06 10:15:11;;;;;;;;;;;;;;;13.28;56.75;100840.22;5056491;28;20280;-67
2022/11/06 10:17:54;;;;;;;;;;;;;;;13.30;57.24;100839.31;5056868;28;19917;-67
2022/11/06 10:20:24;;;;;;;;;;;;;;;13.30;56.22;100849.84;5056288;28;19917;-68
2022/11/06 10:22:52;;;;;;;;;;;;;;;13.27;55.91;100838.50;5056357;28;19921;-68
2022/11/06 10:25:19;;;;;;;;;;;;;;;13.26;56.21;100842.06;5056466;28;19990;-69
2022/11/06 10:27:56;;;;;;;;;;;;;;;13.19;56.29;100845.72;5056594;28;19963;-67
2022/11/06 10:30:22;;;;;;;;;;;;;;;13.36;55.97;100842.69;5056611;28;19971;-67
2022/11/06 10:33:06;;;;;;;;;;;;;;;13.44;56.30;100831.00;5056413;28;19921;-68
2022/11/06 10:35:37;;;;;;;;;;;;;;;13.48;57.18;100830.03;5056060;28;19916;-67
2022/11/06 10:38:06;;;;;;;;;;;;;;;13.58;56.23;100832.44;5056311;28;19923;-68
2022/11/06 10:40:32;;;;;;;;;;;;;;;13.64;56.37;100821.69;5056257;28;19916;-68
2022/11/06 10:43:00;;;;;;;;;;;;;;;13.69;55.50;100825.09;5056201;28;20414;-68
2022/11/06 10:45:27;;;;;;;;;;;;;;;13.73;55.31;100814.41;5056398;28;20336;-68
2022/11/06 10:47:54;;;;;;;;;;;;;;;13.73;56.38;100821.47;5056193;28;20415;-67
2022/11/06 10:50:23;;;;;;;;;;;;;;;13.82;56.45;100810.63;5070627;28;19921;-67
2022/11/06 10:52:55;;;;;;;;;;;;;;;13.89;56.48;100817.50;5056017;28;19948;-67
2022/11/06 10:55:32;;;;;;;;;;;;;;;13.95;56.78;100814.66;5055794;28;20330;-67
2022/11/06 10:58:04;;;;;;;;;;;;;;;13.99;56.18;100808.38;5055871;28;19928;-66
2022/11/06 11:00:30;;;;;;;;;;;;;;;14.04;56.16;100803.84;5055705;28;19912;-67
2022/11/06 11:02:58;;;;;;;;;;;;;;;13.95;56.23;100805.88;5054632;28;19952;-67
2022/11/06 11:05:24;;;;;;;;;;;;;;;14.10;57.70;100794.00;5055780;28;19960;-67
2022/11/06 11:07:50;;;;;;;;;;;;;;;14.08;55.66;100796.66;5055849;28;19955;-66
2022/11/06 11:10:21;;;;;;;;;;;;;;;14.12;55.87;100787.72;5055825;28;20023;-67
2022/11/06 11:12:47;;;;;;;;;;;;;;;14.04;55.78;100790.63;5070903;28;20381;-67
2022/11/06 11:15:13;;;;;;;;;;;;;;;14.04;56.27;100785.34;5055455;28;19929;-66
2022/11/06 11:17:38;;;;;;;;;;;;;;;14.20;55.71;100785.75;5055365;28;19917;-68
2022/11/06 11:20:24;;;;;;;;;;;;;;;14.18;56.35;100777.00;5055442;28;19948;-67
2022/11/06 11:23:03;;;;;;;;;;;;;;;14.21;56.93;100771.63;5055619;28;19963;-68
2022/11/06 11:25:28;;;;;;;;;;;;;;;14.28;56.33;100767.00;5055287;28;19971;-68
2022/11/06 11:27:54;;;;;;;;;;;;;;;14.28;56.23;100767.00;5055011;28;19924;-68
2022/11/06 11:30:21;;;;;;;;;;;;;;;14.32;55.88;100760.69;5055484;28;19920;-68
2022/11/06 11:32:47;;;;;;;;;;;;;;;14.31;56.44;100761.63;5055791;28;19917;-68
2022/11/06 11:35:17;;;;;;;;;;;;;;;14.30;55.99;100754.59;5071557;28;20023;-68
2022/11/06 11:37:42;;;;;;;;;;;;;;;14.25;56.95;100746.81;5055117;28;20372;-68
2022/11/06 11:40:40;;;;;;;;;;;;;;;14.33;56.93;100751.88;5054787;28;19969;-68
2022/11/06 11:43:26;;;;;;;;;;;;;;;14.30;56.15;100749.31;5031908;28;19917;-68
2022/11/06 11:46:13;;;;;;;;;;;;;;;14.33;56.42;100754.53;5055198;28;19916;-68
2022/11/06 11:48:43;;;;;;;;;;;;;;;14.33;57.21;100753.66;5054946;28;19925;-68
2022/11/06 11:51:27;;;;;;;;;;;;;;;14.32;57.09;100744.84;5054508;28;19951;-68
2022/11/06 11:53:55;;;;;;;;;;;;;;;14.48;56.61;100750.50;5054793;28;19916;-68
2022/11/06 11:56:21;;;;;;;;;;;;;;;14.44;56.80;100751.53;5054472;28;19948;-68
2022/11/06 11:58:56;;;;;;;;;;;;;;;14.54;57.39;100748.56;5054111;28;20210;-67
2022/11/06 12:01:33;;;;;;;;;;;;;;;14.52;56.54;100750.41;5054216;28;19917;-69
2022/11/06 12:03:58;;;;;;;;;;;;;;;14.25;56.26;100743.31;5054294;28;19948;-68
2022/11/06 12:06:24;;;;;;;;;;;;;;;14.46;56.53;100745.28;5054611;28;20280;-68
2022/11/06 12:08:52;;;;;;;;;;;;;;;14.36;57.12;100746.47;5054716;28;19959;-68
2022/11/06 12:11:26;;;;;;;;;;;;;;;14.44;56.96;100740.94;5069919;28;20391;-69
2022/11/06 12:14:10;;;;;;;;;;;;;;;14.50;56.76;100744.31;5055158;28;20063;-69
2022/11/06 12:16:35;;;;;;;;;;;;;;;14.55;57.14;100738.84;5054239;28;19970;-67
2022/11/06 12:19:01;;;;;;;;;;;;;;;14.49;56.96;100733.78;5054429;28;19921;-69
2022/11/06 12:21:28;;;;;;;;;;;;;;;14.62;56.37;100739.53;5054258;28;20344;-68
2022/11/06 12:24:00;;;;;;;;;;;;;;;14.66;57.28;100727.94;5054340;28;19921;-69
2022/11/06 12:26:29;;;;;;;;;;;;;;;14.63;56.55;100726.25;5054290;28;19916;-69
2022/11/06 12:28:57;;;;;;;;;;;;;;;14.62;56.37;100729.81;5069688;28;19921;-69
2022/11/06 12:31:36;;;;;;;;;;;;;;;14.69;56.46;100725.22;5054319;28;19916;-69
2022/11/06 12:34:04;;;;;;;;;;;;;;;14.70;56.67;100721.63;5054307;28;20004;-69
2022/11/06 12:36:35;;;;;;;;;;;;;;;14.72;57.47;100715.38;5054258;28;19928;-69
2022/11/06 12:39:02;;;;;;;;;;;;;;;14.71;57.21;100723.34;5054625;28;19964;-69
2022/11/06 12:41:40;;;;;;;;;;;;;;;14.76;56.74;100718.78;5054102;28;19920;-69
2022/11/06 12:44:09;;;;;;;;;;;;;;;14.70;58.24;100716.34;5053940;28;19921;-69
2022/11/06 12:46:40;;;;;;;;;;;;;;;14.72;57.00;100710.09;5053890;28;20111;-70
2022/11/06 12:49:06;;;;;;;;;;;;;;;14.63;56.71;100712.16;5068902;28;19921;-68
2022/11/06 12:51:37;;;;;;;;;;;;;;;14.66;56.72;100714.72;5069654;28;19970;-69
2022/11/06 12:54:22;;;;;;;;;;;;;;;14.66;57.13;100715.59;5054282;28;19948;-69
2022/11/06 12:57:03;;;;;;;;;;;;;;;14.64;57.35;100714.78;5053543;28;19917;-69
2022/11/06 12:59:37;;;;;;;;;;;;;;;14.56;57.21;100708.00;5069673;28;20019;-68